createdAt,value
2023-03-06T00:01:18.590Z,1.10
2023-03-06T00:04:03.932Z,1.00
2023-03-06T00:06:49.579Z,1.05
2023-03-06T00:09:35.043Z,0.88
2023-03-06T00:12:20.410Z,1.13
2023-03-06T00:15:06.620Z,1.00
2023-03-06T00:17:52.745Z,1.00
2023-03-06T00:20:40.621Z,0.80
2023-03-06T00:23:27.536Z,1.02
2023-03-06T00:26:14.716Z,0.93
2023-03-06T00:29:00.575Z,1.08
2023-03-06T00:31:47.886Z,0.98
2023-03-06T00:34:33.337Z,0.98
2023-03-06T00:37:19.089Z,0.80
2023-03-06T00:40:13.987Z,0.95
2023-03-06T00:42:59.386Z,1.02
2023-03-06T00:45:44.728Z,0.90
2023-03-06T00:48:30.100Z,1.00
2023-03-06T00:51:17.175Z,0.77
2023-03-06T00:54:02.272Z,1.27
2023-03-06T00:56:47.647Z,1.00
2023-03-06T00:59:33.210Z,0.93
2023-03-06T01:02:18.601Z,1.00
2023-03-06T01:05:04.652Z,1.00
2023-03-06T01:07:50.078Z,0.90
2023-03-06T01:10:39.218Z,0.90
2023-03-06T01:13:25.049Z,0.90
2023-03-06T01:16:14.079Z,0.90
2023-03-06T01:18:59.528Z,0.70
2023-03-06T01:21:45.429Z,0.80
2023-03-06T01:24:31.202Z,0.70
2023-03-06T01:27:16.582Z,0.70
2023-03-06T01:30:04.578Z,0.60
2023-03-06T01:32:50.147Z,0.80
2023-03-06T01:35:37.735Z,0.60
2023-03-06T01:38:23.609Z,0.60
2023-03-06T01:41:10.888Z,0.68
2023-03-06T01:43:56.319Z,0.68
2023-03-06T01:46:43.377Z,0.98
2023-03-06T01:49:38.586Z,0.60
2023-03-06T01:52:27.014Z,0.75
2023-03-06T01:55:19.796Z,0.70
2023-03-06T01:58:09.228Z,0.57
2023-03-06T02:00:55.311Z,0.50
2023-03-06T02:03:43.691Z,0.50
2023-03-06T02:06:29.086Z,0.55
2023-03-06T02:09:14.905Z,0.50
2023-03-06T02:12:01.992Z,0.40
2023-03-06T02:14:48.274Z,0.60
2023-03-06T02:17:35.468Z,0.50
2023-03-06T02:20:38.325Z,0.55
2023-03-06T02:23:40.753Z,0.50
2023-03-06T02:26:29.277Z,0.32
2023-03-06T02:29:20.487Z,0.45
2023-03-06T02:32:06.925Z,0.50
2023-03-06T02:34:56.264Z,0.60
2023-03-06T02:37:41.986Z,0.60
2023-03-06T02:40:27.433Z,0.60
2023-03-06T02:43:16.027Z,0.60
2023-03-06T02:46:02.866Z,0.50
2023-03-06T02:48:48.398Z,0.88
2023-03-06T02:51:35.045Z,0.50
2023-03-06T02:54:20.411Z,0.40
2023-03-06T02:57:06.016Z,0.50
2023-03-06T02:59:51.406Z,0.40
2023-03-06T03:02:37.886Z,0.52
2023-03-06T03:05:24.149Z,0.60
2023-03-06T03:08:16.182Z,0.57
2023-03-06T03:11:01.915Z,0.50
2023-03-06T03:13:53.033Z,1.00
2023-03-06T03:16:41.992Z,0.60
2023-03-06T03:19:28.168Z,0.80
2023-03-06T03:22:14.406Z,0.50
2023-03-06T03:24:59.913Z,0.55
2023-03-06T03:27:46.065Z,0.45
2023-03-06T03:30:31.577Z,0.80
2023-03-06T03:33:17.183Z,0.60
2023-03-06T03:36:05.485Z,0.65
2023-03-06T03:38:52.902Z,0.75
2023-03-06T03:41:38.466Z,0.60
2023-03-06T03:44:26.653Z,1.13
2023-03-06T03:47:12.030Z,0.80
2023-03-06T03:49:57.572Z,0.77
2023-03-06T03:52:43.351Z,0.60
2023-03-06T03:55:29.997Z,0.70
2023-03-06T03:58:15.877Z,0.75
2023-03-06T04:01:02.322Z,1.13
2023-03-06T04:03:47.799Z,1.33
2023-03-06T04:06:34.906Z,1.30
2023-03-06T04:09:20.911Z,1.23
2023-03-06T04:12:07.557Z,1.50
2023-03-06T04:14:54.985Z,1.67
2023-03-06T04:17:41.068Z,1.70
2023-03-06T04:20:31.452Z,1.60
2023-03-06T04:23:19.850Z,1.40
2023-03-06T04:26:06.009Z,1.15
2023-03-06T04:28:51.414Z,1.38
2023-03-06T04:31:37.332Z,1.15
2023-03-06T04:34:22.788Z,1.00
2023-03-06T04:37:17.943Z,0.90
2023-03-06T04:40:04.219Z,0.98
2023-03-06T04:42:50.028Z,0.68
2023-03-06T04:45:35.935Z,0.80
2023-03-06T04:48:21.067Z,0.85
2023-03-06T04:51:06.940Z,0.70
2023-03-06T04:53:52.372Z,0.73
2023-03-06T04:56:37.782Z,0.60
2023-03-06T04:59:23.272Z,0.55
2023-03-06T05:02:08.683Z,0.60
2023-03-06T05:04:54.161Z,0.50
2023-03-06T05:07:40.109Z,0.85
2023-03-06T05:10:26.802Z,0.50
2023-03-06T05:13:12.177Z,0.55
2023-03-06T05:16:03.027Z,1.00
2023-03-06T05:18:50.673Z,0.63
2023-03-06T05:21:36.099Z,0.50
2023-03-06T05:24:21.602Z,0.52
2023-03-06T05:27:08.542Z,0.70
2023-03-06T05:29:55.517Z,0.50
2023-03-06T05:32:40.960Z,0.50
2023-03-06T05:35:26.463Z,0.50
2023-03-06T05:38:12.406Z,0.60
2023-03-06T05:40:57.810Z,0.65
2023-03-06T05:43:44.744Z,0.80
2023-03-06T05:46:30.430Z,0.60
2023-03-06T05:49:16.483Z,0.82
2023-03-06T05:52:04.685Z,0.75
2023-03-06T05:54:52.160Z,1.00
2023-03-06T05:57:37.660Z,0.75
2023-03-06T06:00:24.193Z,0.77
2023-03-06T06:03:09.671Z,0.73
2023-03-06T06:05:55.167Z,0.85
2023-03-06T06:08:41.344Z,0.80
2023-03-06T06:11:26.462Z,0.70
2023-03-06T06:14:12.182Z,0.88
2023-03-06T06:16:57.676Z,0.88
2023-03-06T06:19:43.372Z,1.10
2023-03-06T06:22:28.890Z,0.73
2023-03-06T06:25:15.295Z,0.98
2023-03-06T06:28:00.995Z,0.80
2023-03-06T06:30:46.187Z,0.90
2023-03-06T06:33:31.708Z,0.98
2023-03-06T06:36:19.546Z,1.05
2023-03-06T06:39:05.930Z,0.85
2023-03-06T06:42:05.891Z,0.80
2023-03-06T06:44:55.249Z,0.75
2023-03-06T06:47:41.494Z,0.90
2023-03-06T06:50:28.256Z,0.90
2023-03-06T06:53:13.767Z,1.08
2023-03-06T06:56:00.062Z,0.80
2023-03-06T06:58:45.271Z,0.85
2023-03-06T07:01:30.815Z,1.00
2023-03-06T07:04:16.727Z,1.00
2023-03-06T07:07:02.603Z,0.68
2023-03-06T07:09:47.977Z,1.00
2023-03-06T07:12:34.927Z,1.17
2023-03-06T07:15:20.172Z,1.00
2023-03-06T07:18:05.473Z,0.70
2023-03-06T07:20:52.952Z,0.70
2023-03-06T07:23:39.082Z,0.68
2023-03-06T07:26:26.131Z,0.70
2023-03-06T07:29:11.460Z,0.70
2023-03-06T07:31:57.032Z,0.73
2023-03-06T07:34:44.172Z,0.80
2023-03-06T07:37:29.461Z,1.00
2023-03-06T07:40:14.738Z,0.70
2023-03-06T07:43:13.224Z,0.70
2023-03-06T07:46:09.671Z,0.70
2023-03-06T07:48:55.130Z,0.65
2023-03-06T07:51:40.446Z,0.75
2023-03-06T07:54:25.701Z,0.60
2023-03-06T07:57:11.091Z,0.70
2023-03-06T07:59:56.722Z,0.60
2023-03-06T08:02:42.990Z,0.80
2023-03-06T08:05:28.226Z,0.60
2023-03-06T08:08:13.939Z,0.75
2023-03-06T08:10:59.224Z,0.50
2023-03-06T08:13:45.057Z,0.60
2023-03-06T08:16:30.750Z,0.60
2023-03-06T08:19:16.677Z,0.60
2023-03-06T08:22:03.619Z,0.63
2023-03-06T08:24:48.797Z,0.50
2023-03-06T08:27:34.466Z,0.50
2023-03-06T08:30:21.493Z,0.50
2023-03-06T08:33:06.971Z,0.60
2023-03-06T08:35:52.696Z,0.40
2023-03-06T08:38:38.283Z,0.30
2023-03-06T09:41:01.381Z,0.32
2023-03-06T09:43:50.128Z,0.30
2023-03-06T09:46:51.131Z,0.40
2023-03-06T09:50:20.263Z,0.30
2023-03-06T09:53:24.429Z,0.22
2023-03-06T09:56:20.588Z,0.25
2023-03-06T09:59:18.987Z,0.30
2023-03-06T10:02:16.029Z,0.50
2023-03-06T10:05:06.876Z,0.38
2023-03-06T10:08:00.678Z,0.40
2023-03-06T10:11:08.583Z,0.40
2023-03-06T10:14:07.626Z,0.50
2023-03-06T10:16:53.819Z,0.30
2023-03-06T10:19:42.165Z,0.50
2023-03-06T10:22:31.140Z,0.70
2023-03-06T10:25:30.146Z,0.40
2023-03-06T10:28:29.348Z,0.40
2023-03-06T10:31:26.596Z,0.38
2023-03-06T10:34:35.400Z,0.38
2023-03-06T10:37:22.602Z,0.30
2023-03-06T10:40:21.537Z,0.50
2023-03-06T10:43:12.180Z,0.45
2023-03-06T10:45:58.368Z,0.52
2023-03-06T10:48:57.907Z,0.63
2023-03-06T10:51:57.285Z,0.40
2023-03-06T10:54:44.597Z,0.50
2023-03-06T10:57:31.793Z,0.50
2023-03-06T11:00:30.133Z,0.50
2023-03-06T11:03:24.119Z,0.40
2023-03-06T11:06:15.225Z,0.40
2023-03-06T11:09:24.669Z,0.38
2023-03-06T11:12:32.202Z,0.50
2023-03-06T11:15:22.388Z,0.50
2023-03-06T11:18:07.677Z,0.57
2023-03-06T11:20:55.293Z,0.52
2023-03-06T11:23:47.376Z,0.90
2023-03-06T11:26:43.832Z,0.80
2023-03-06T11:29:44.650Z,0.70
2023-03-06T11:32:42.958Z,0.80
2023-03-06T11:35:38.663Z,0.80
2023-03-06T11:38:49.567Z,0.77
2023-03-06T11:41:52.483Z,0.80
2023-03-06T11:44:50.194Z,0.70
2023-03-06T11:47:40.172Z,1.00
2023-03-06T11:50:34.070Z,0.82
2023-03-06T11:53:32.007Z,0.60
2023-03-06T11:56:23.433Z,0.70
2023-03-06T11:59:46.456Z,0.60
2023-03-06T12:03:11.003Z,0.80
2023-03-06T12:06:03.846Z,1.00
2023-03-06T12:09:01.663Z,0.70
2023-03-06T12:11:52.599Z,0.85
2023-03-06T12:14:56.357Z,0.98
2023-03-06T12:18:09.942Z,0.88
2023-03-06T12:21:10.684Z,0.90
2023-03-06T12:24:31.430Z,0.93
2023-03-06T12:28:01.866Z,1.00
2023-03-06T12:31:08.459Z,0.90
2023-03-06T12:34:18.883Z,1.10
2023-03-06T12:37:12.064Z,0.90
2023-03-06T12:40:14.014Z,0.90
2023-03-06T12:43:10.187Z,1.10
2023-03-06T12:46:09.479Z,0.93
2023-03-06T12:49:09.769Z,1.40
2023-03-06T12:51:57.612Z,1.88
2023-03-06T12:54:43.144Z,2.22
2023-03-06T12:57:30.135Z,2.15
2023-03-06T13:00:34.205Z,2.70
2023-03-06T13:03:50.149Z,3.00
2023-03-06T13:06:50.934Z,3.15
2023-03-06T13:09:57.529Z,2.90
2023-03-06T13:13:00.609Z,2.45
2023-03-06T13:16:04.014Z,2.53
2023-03-06T13:18:54.461Z,2.42
2023-03-06T13:21:42.817Z,2.50
2023-03-06T13:24:34.350Z,3.63
2023-03-06T13:28:00.117Z,3.20
2023-03-06T13:30:46.044Z,2.90
2023-03-06T13:33:53.014Z,2.92
2023-03-06T13:36:39.874Z,3.13
2023-03-06T13:39:25.565Z,3.75
2023-03-06T13:42:30.282Z,3.30
2023-03-06T13:45:29.916Z,3.85
2023-03-06T13:48:43.087Z,3.80
2023-03-06T13:51:34.618Z,3.70
2023-03-06T13:54:32.164Z,3.17
2023-03-06T13:57:38.136Z,4.00
2023-03-06T14:00:50.216Z,3.00
2023-03-06T14:04:17.392Z,3.30
2023-03-06T14:07:26.927Z,2.72
2023-03-06T14:10:22.609Z,2.80
2023-03-06T14:13:20.689Z,2.60
2023-03-06T14:16:18.059Z,2.63
2023-03-06T14:19:03.529Z,2.90
2023-03-06T14:21:56.355Z,3.25
2023-03-06T14:24:51.238Z,3.63
2023-03-06T14:27:48.993Z,3.70
2023-03-06T14:30:34.343Z,4.50
2023-03-06T14:33:34.601Z,3.58
2023-03-06T14:36:44.178Z,3.67
2023-03-06T14:39:40.286Z,3.33
2023-03-06T14:42:27.812Z,3.15
2023-03-06T14:45:17.922Z,2.80
2023-03-06T14:48:06.290Z,3.00
2023-03-06T14:50:56.805Z,2.80
2023-03-06T14:53:44.781Z,2.22
2023-03-06T14:56:32.405Z,2.58
2023-03-06T14:59:25.863Z,2.55
2023-03-06T15:02:18.480Z,2.70
2023-03-06T15:05:11.990Z,2.10
2023-03-06T15:08:04.597Z,2.00
2023-03-06T15:10:59.805Z,2.35
2023-03-06T15:14:00.879Z,2.00
2023-03-06T15:16:46.487Z,1.90
2023-03-06T15:19:40.667Z,2.30
2023-03-06T15:22:34.228Z,2.50
2023-03-06T15:25:30.178Z,2.65
2023-03-06T15:28:37.012Z,3.42
2023-03-06T15:31:28.549Z,3.40
2023-03-06T15:34:18.416Z,3.40
2023-03-06T15:37:25.617Z,3.85
2023-03-06T15:40:18.320Z,3.78
2023-03-06T15:43:03.709Z,5.38
2023-03-06T15:45:48.920Z,4.38
2023-03-06T15:48:35.715Z,4.68
2023-03-06T15:51:21.622Z,4.75
2023-03-06T15:54:12.256Z,4.88
2023-03-06T15:56:58.380Z,5.30
2023-03-06T15:59:45.300Z,5.40
2023-03-06T16:02:30.706Z,5.00
2023-03-06T16:05:17.810Z,4.05
2023-03-06T16:08:04.587Z,3.92
2023-03-06T16:10:52.537Z,3.90
2023-03-06T16:13:38.269Z,3.10
2023-03-06T16:16:34.432Z,3.58
2023-03-06T16:19:27.398Z,3.70
2023-03-06T16:22:14.867Z,3.15
2023-03-06T16:25:00.247Z,3.50
2023-03-06T16:27:50.875Z,3.53
2023-03-06T16:30:38.123Z,4.20
2023-03-06T16:33:23.664Z,4.20
2023-03-06T16:36:21.282Z,3.78
2023-03-06T16:39:11.369Z,4.20
2023-03-06T16:41:56.736Z,4.65
2023-03-06T16:44:42.262Z,4.47
2023-03-06T16:47:27.645Z,4.90
2023-03-06T16:50:24.322Z,5.03
2023-03-06T16:53:10.079Z,5.57
2023-03-06T16:55:55.750Z,5.05
2023-03-06T16:58:41.605Z,5.85
2023-03-06T17:01:27.870Z,6.82
2023-03-06T17:04:13.509Z,6.88
2023-03-06T17:06:59.196Z,6.85
2023-03-06T17:09:44.543Z,6.30
2023-03-06T17:12:31.744Z,7.05
2023-03-06T17:15:16.806Z,7.38
2023-03-06T17:18:02.384Z,8.05
2023-03-06T17:20:51.720Z,8.95
2023-03-06T17:23:37.318Z,9.32
2023-03-06T17:26:23.020Z,9.88
2023-03-06T17:29:09.645Z,11.25
2023-03-06T17:31:55.042Z,10.05
2023-03-06T17:34:40.919Z,10.35
2023-03-06T17:37:26.643Z,12.20
2023-03-06T17:40:12.473Z,12.10
2023-03-06T17:42:57.802Z,12.77
2023-03-06T17:45:43.422Z,13.98
2023-03-06T17:48:28.826Z,13.95
2023-03-06T17:51:14.817Z,12.70
2023-03-06T17:54:01.330Z,15.48
2023-03-06T17:56:47.129Z,16.17
2023-03-06T17:59:34.280Z,18.00
2023-03-06T18:02:20.255Z,16.77
2023-03-06T18:05:06.507Z,17.92
2023-03-06T18:07:51.781Z,18.83
2023-03-06T18:10:41.870Z,19.30
2023-03-06T18:13:27.534Z,19.20
2023-03-06T18:16:15.089Z,18.55
2023-03-06T18:19:00.959Z,19.92
2023-03-06T18:21:47.216Z,19.23
2023-03-06T18:24:32.771Z,19.00
2023-03-06T18:27:17.899Z,18.27
2023-03-06T18:30:03.783Z,18.25
2023-03-06T18:32:49.025Z,17.77
2023-03-06T18:35:35.798Z,16.33
2023-03-06T18:38:20.891Z,15.57
2023-03-06T18:41:10.950Z,16.75
2023-03-06T18:43:58.726Z,16.75
2023-03-06T18:46:44.365Z,16.35
2023-03-06T18:49:29.825Z,16.98
2023-03-06T18:52:15.588Z,16.75
2023-03-06T18:55:01.261Z,16.42
2023-03-06T18:57:47.040Z,17.35
2023-03-06T19:00:32.255Z,16.25
2023-03-06T19:03:17.805Z,17.55
2023-03-06T19:06:10.056Z,14.75
2023-03-06T19:08:58.874Z,15.98
2023-03-06T19:11:46.744Z,16.27
2023-03-06T19:14:31.758Z,16.73
2023-03-06T19:17:17.970Z,15.95
2023-03-06T19:20:03.971Z,14.65
2023-03-06T19:22:49.260Z,15.45
2023-03-06T19:25:35.274Z,16.02
2023-03-06T19:28:20.617Z,15.52
2023-03-06T19:31:11.103Z,14.68
2023-03-06T19:33:56.784Z,15.75
2023-03-06T19:36:42.382Z,14.90
2023-03-06T19:39:27.500Z,14.70
2023-03-06T19:42:13.936Z,14.25
2023-03-06T19:44:59.274Z,14.93
2023-03-06T19:47:44.966Z,16.23
2023-03-06T19:50:30.164Z,15.10
2023-03-06T19:53:15.966Z,15.32
2023-03-06T19:56:06.678Z,15.45
2023-03-06T19:58:52.175Z,14.45
2023-03-06T20:01:38.483Z,15.77
2023-03-06T20:04:24.193Z,15.73
2023-03-06T20:07:09.743Z,15.63
2023-03-06T20:10:00.212Z,14.43
2023-03-06T20:12:45.340Z,13.95
2023-03-06T20:15:31.156Z,14.48
2023-03-06T20:18:16.312Z,15.52
2023-03-06T20:21:03.445Z,15.40
2023-03-06T20:23:48.665Z,15.43
2023-03-06T20:26:35.006Z,14.55
2023-03-06T20:29:20.650Z,16.17
2023-03-06T20:32:06.191Z,16.25
2023-03-06T20:34:51.224Z,16.45
2023-03-06T20:37:38.037Z,16.58
2023-03-06T20:40:23.319Z,14.48
2023-03-06T20:43:09.093Z,16.45
2023-03-06T20:46:02.896Z,15.05
2023-03-06T20:48:50.219Z,15.55
2023-03-06T20:51:39.044Z,16.65
2023-03-06T20:54:25.352Z,16.27
2023-03-06T20:57:11.152Z,16.90
2023-03-06T20:59:56.832Z,12.43
2023-03-06T21:02:42.216Z,9.50
2023-03-06T21:05:27.844Z,7.55
2023-03-06T21:08:13.958Z,6.20
2023-03-06T21:10:59.979Z,5.80
2023-03-06T21:13:45.646Z,4.68
2023-03-06T21:16:31.723Z,5.22
2023-03-06T21:19:17.126Z,5.07
2023-03-06T21:22:02.861Z,4.22
2023-03-06T21:24:47.983Z,4.50
2023-03-06T21:27:33.503Z,3.95
2023-03-06T21:30:18.938Z,3.50
2023-03-06T21:33:04.668Z,3.72
2023-03-06T21:35:49.802Z,3.28
2023-03-06T21:38:35.758Z,3.38
2023-03-06T21:41:27.432Z,3.28
2023-03-06T21:44:12.963Z,2.88
2023-03-06T21:46:58.406Z,2.80
2023-03-06T21:49:44.205Z,2.58
2023-03-06T21:52:29.720Z,2.72
2023-03-06T21:55:15.221Z,2.33
2023-03-06T21:58:00.669Z,2.45
2023-03-06T22:00:46.352Z,2.20
2023-03-06T22:03:31.757Z,2.30
2023-03-06T22:06:20.419Z,1.90
2023-03-06T22:09:06.399Z,1.58
2023-03-06T22:11:51.560Z,2.50
2023-03-06T22:14:37.108Z,2.00
2023-03-06T22:17:22.610Z,1.85
2023-03-06T22:20:09.091Z,2.20
2023-03-06T22:22:54.453Z,1.95
2023-03-06T22:25:39.914Z,1.70
2023-03-06T22:28:25.545Z,1.90
2023-03-06T22:31:14.600Z,1.67
2023-03-06T22:34:01.623Z,1.60
2023-03-06T22:36:48.128Z,1.63
2023-03-06T22:39:33.660Z,1.70
2023-03-06T22:42:19.204Z,2.33
2023-03-06T22:45:05.181Z,1.63
2023-03-06T22:47:53.399Z,2.08
2023-03-06T22:50:40.660Z,1.50
2023-03-06T22:53:26.063Z,1.80
2023-03-06T22:56:14.258Z,2.15
2023-03-06T22:59:00.132Z,1.42
2023-03-06T23:01:45.246Z,1.92
2023-03-06T23:04:30.823Z,1.77
2023-03-06T23:07:16.295Z,1.70
2023-03-06T23:10:01.716Z,1.52
2023-03-06T23:13:06.146Z,1.35
2023-03-06T23:16:10.671Z,1.25
2023-03-06T23:19:16.217Z,1.10
2023-03-06T23:22:20.205Z,1.35
2023-03-06T23:25:24.577Z,1.30
2023-03-06T23:28:10.176Z,1.30
2023-03-06T23:30:55.532Z,1.00
2023-03-06T23:33:41.638Z,1.35
2023-03-06T23:36:27.519Z,1.30
2023-03-06T23:39:13.083Z,1.35
2023-03-06T23:41:58.723Z,1.10
2023-03-06T23:44:44.175Z,1.40
2023-03-06T23:47:33.918Z,1.30
2023-03-06T23:50:19.567Z,1.15
2023-03-06T23:53:05.008Z,1.35
2023-03-06T23:55:51.191Z,2.03
2023-03-06T23:58:37.396Z,1.40
